Terminal Aerodrome Forecast
Issued by NWS Sterling, VA

Current Version | Previous Version | Text Only | Print | Product List | Glossary Off
Versions: 1 2 3 4 5 6 7 8 9 10 11 12

000
FTUS41 KLWX 221720
TAFMRB
TAF
KMRB 221720Z 2218/2318 33009KT P6SM SCT040
     FM230000 34005KT P6SM FEW050
     FM231700 17004KT P6SM FEW060=

USA.gov is the U.S. government's official web portal to all federal, state and local government web resources and services.